< < Back
Terminal Aerodrome Forecast


Current Version              Previous Versions:   1  2  3  4  5  6  7  8  9  

Terminal Aerodrome Forecast

984
FTUS42 KCHS 242320
TAFSAV
TAF
KSAV 242320Z 2500/2524 19004KT P6SM FEW015 SCT250
     FM250200 VRB03KT P6SM SKC
     FM251700 15009KT P6SM SCT040=

Latest METAR

907
SAUS80 KWBC 251400 CCA
MTRSAV
METAR KSAV 251353Z 20006KT 10SM FEW025 FEW250 29/22 A3010 RMK AO2 SLP191
T02940217


USA.gov is the U.S. government's official web portal to all federal, state and local government web resources and services.